sensor_id;sensor_type;location;lat;lon;timestamp;P1;durP1;ratioP1;P2;durP2;ratioP2
18280;SDS011;9266;51.132;17.062;2023-05-16T00:01:58;20.03;;;18.03;;
18280;SDS011;9266;51.132;17.062;2023-05-16T00:04:26;21.23;;;19.07;;
18280;SDS011;9266;51.132;17.062;2023-05-16T00:06:53;20.10;;;17.97;;
18280;SDS011;9266;51.132;17.062;2023-05-16T00:09:21;23.93;;;19.60;;
18280;SDS011;9266;51.132;17.062;2023-05-16T00:15:10;24.93;;;20.00;;
18280;SDS011;9266;51.132;17.062;2023-05-16T00:17:38;22.87;;;19.33;;
18280;SDS011;9266;51.132;17.062;2023-05-16T00:20:08;22.90;;;20.47;;
18280;SDS011;9266;51.132;17.062;2023-05-16T00:22:35;21.93;;;19.63;;
18280;SDS011;9266;51.132;17.062;2023-05-16T00:25:04;21.57;;;19.37;;
18280;SDS011;9266;51.132;17.062;2023-05-16T00:27:33;24.30;;;20.63;;
18280;SDS011;9266;51.132;17.062;2023-05-16T00:30:00;21.90;;;19.43;;
18280;SDS011;9266;51.132;17.062;2023-05-16T00:32:27;22.30;;;20.00;;
18280;SDS011;9266;51.132;17.062;2023-05-16T00:34:54;22.83;;;20.57;;
18280;SDS011;9266;51.132;17.062;2023-05-16T00:37:21;22.33;;;20.03;;
18280;SDS011;9266;51.132;17.062;2023-05-16T00:39:48;21.73;;;19.53;;
18280;SDS011;9266;51.132;17.062;2023-05-16T00:42:17;22.43;;;20.13;;
18280;SDS011;9266;51.132;17.062;2023-05-16T00:44:45;22.23;;;20.03;;
18280;SDS011;9266;51.132;17.062;2023-05-16T00:47:12;22.33;;;19.97;;
18280;SDS011;9266;51.132;17.062;2023-05-16T00:49:39;22.27;;;19.97;;
18280;SDS011;9266;51.132;17.062;2023-05-16T00:52:06;21.67;;;19.57;;
18280;SDS011;9266;51.132;17.062;2023-05-16T00:54:33;22.40;;;20.17;;
18280;SDS011;9266;51.132;17.062;2023-05-16T00:57:00;21.63;;;19.07;;
18280;SDS011;9266;51.132;17.062;2023-05-16T00:59:29;21.73;;;19.53;;
18280;SDS011;9266;51.132;17.062;2023-05-16T01:01:56;22.40;;;20.20;;
18280;SDS011;9266;51.132;17.062;2023-05-16T01:04:23;22.30;;;19.23;;
18280;SDS011;9266;51.132;17.062;2023-05-16T01:06:50;21.77;;;19.57;;
18280;SDS011;9266;51.132;17.062;2023-05-16T01:09:19;23.27;;;20.97;;
18280;SDS011;9266;51.132;17.062;2023-05-16T01:11:49;21.93;;;19.70;;
18280;SDS011;9266;51.132;17.062;2023-05-16T01:14:24;21.80;;;19.57;;
18280;SDS011;9266;51.132;17.062;2023-05-16T01:17:04;21.47;;;19.27;;
18280;SDS011;9266;51.132;17.062;2023-05-16T01:19:43;20.97;;;18.70;;
18280;SDS011;9266;51.132;17.062;2023-05-16T01:22:20;22.00;;;18.97;;
18280;SDS011;9266;51.132;17.062;2023-05-16T01:25:01;21.00;;;18.90;;
18280;SDS011;9266;51.132;17.062;2023-05-16T01:27:38;20.77;;;18.57;;
18280;SDS011;9266;51.132;17.062;2023-05-16T01:30:12;21.20;;;19.10;;
18280;SDS011;9266;51.132;17.062;2023-05-16T01:32:40;21.10;;;18.83;;
18280;SDS011;9266;51.132;17.062;2023-05-16T01:35:08;22.37;;;19.97;;
18280;SDS011;9266;51.132;17.062;2023-05-16T01:37:38;20.37;;;18.27;;
18280;SDS011;9266;51.132;17.062;2023-05-16T01:40:11;20.03;;;17.93;;
18280;SDS011;9266;51.132;17.062;2023-05-16T01:42:44;22.87;;;20.53;;
18280;SDS011;9266;51.132;17.062;2023-05-16T01:45:14;21.00;;;18.90;;
18280;SDS011;9266;51.132;17.062;2023-05-16T01:47:46;19.50;;;17.50;;
18280;SDS011;9266;51.132;17.062;2023-05-16T01:50:22;19.73;;;17.63;;
18280;SDS011;9266;51.132;17.062;2023-05-16T01:52:55;20.03;;;18.03;;
18280;SDS011;9266;51.132;17.062;2023-05-16T01:55:28;21.63;;;18.97;;
18280;SDS011;9266;51.132;17.062;2023-05-16T01:58:09;20.10;;;18.00;;
18280;SDS011;9266;51.132;17.062;2023-05-16T02:00:38;20.60;;;18.50;;
18280;SDS011;9266;51.132;17.062;2023-05-16T02:03:05;19.83;;;17.83;;
18280;SDS011;9266;51.132;17.062;2023-05-16T02:05:32;20.87;;;18.67;;
18280;SDS011;9266;51.132;17.062;2023-05-16T02:08:00;21.50;;;18.77;;
18280;SDS011;9266;51.132;17.062;2023-05-16T02:10:27;20.73;;;18.20;;
18280;SDS011;9266;51.132;17.062;2023-05-16T02:12:54;19.17;;;17.13;;
18280;SDS011;9266;51.132;17.062;2023-05-16T02:15:22;21.23;;;19.03;;
18280;SDS011;9266;51.132;17.062;2023-05-16T02:17:49;20.37;;;18.27;;
18280;SDS011;9266;51.132;17.062;2023-05-16T02:20:16;20.70;;;18.57;;
18280;SDS011;9266;51.132;17.062;2023-05-16T02:22:43;20.93;;;18.70;;
18280;SDS011;9266;51.132;17.062;2023-05-16T02:25:12;21.37;;;18.27;;
18280;SDS011;9266;51.132;17.062;2023-05-16T02:27:39;20.90;;;18.77;;
18280;SDS011;9266;51.132;17.062;2023-05-16T02:30:07;19.67;;;17.67;;
18280;SDS011;9266;51.132;17.062;2023-05-16T02:32:37;20.23;;;18.03;;
18280;SDS011;9266;51.132;17.062;2023-05-16T02:35:04;20.27;;;18.23;;
18280;SDS011;9266;51.132;17.062;2023-05-16T02:37:32;20.10;;;17.93;;
18280;SDS011;9266;51.132;17.062;2023-05-16T02:39:59;20.53;;;18.17;;
18280;SDS011;9266;51.132;17.062;2023-05-16T02:42:26;22.23;;;17.90;;
18280;SDS011;9266;51.132;17.062;2023-05-16T02:44:53;20.13;;;17.63;;
18280;SDS011;9266;51.132;17.062;2023-05-16T02:47:20;20.00;;;17.90;;
18280;SDS011;9266;51.132;17.062;2023-05-16T02:49:49;20.40;;;17.97;;
18280;SDS011;9266;51.132;17.062;2023-05-16T02:52:17;19.87;;;17.73;;
18280;SDS011;9266;51.132;17.062;2023-05-16T02:54:43;19.10;;;17.03;;
18280;SDS011;9266;51.132;17.062;2023-05-16T02:57:10;18.57;;;16.67;;
18280;SDS011;9266;51.132;17.062;2023-05-16T02:59:37;19.53;;;17.23;;
18280;SDS011;9266;51.132;17.062;2023-05-16T03:02:05;19.97;;;16.47;;
18280;SDS011;9266;51.132;17.062;2023-05-16T03:04:32;19.10;;;17.10;;
18280;SDS011;9266;51.132;17.062;2023-05-16T03:07:00;22.30;;;16.57;;
18280;SDS011;9266;51.132;17.062;2023-05-16T03:09:27;18.30;;;15.53;;
18280;SDS011;9266;51.132;17.062;2023-05-16T03:11:55;21.17;;;17.43;;
18280;SDS011;9266;51.132;17.062;2023-05-16T03:14:23;23.40;;;16.83;;
18280;SDS011;9266;51.132;17.062;2023-05-16T03:16:50;18.40;;;16.33;;
18280;SDS011;9266;51.132;17.062;2023-05-16T03:19:17;18.93;;;16.77;;
18280;SDS011;9266;51.132;17.062;2023-05-16T03:21:44;19.40;;;17.33;;
18280;SDS011;9266;51.132;17.062;2023-05-16T03:24:12;21.83;;;16.67;;
18280;SDS011;9266;51.132;17.062;2023-05-16T03:26:40;21.03;;;16.30;;
18280;SDS011;9266;51.132;17.062;2023-05-16T03:29:06;18.80;;;16.77;;
18280;SDS011;9266;51.132;17.062;2023-05-16T03:31:34;16.90;;;15.10;;
18280;SDS011;9266;51.132;17.062;2023-05-16T03:34:01;15.47;;;13.87;;
18280;SDS011;9266;51.132;17.062;2023-05-16T03:36:28;15.17;;;13.40;;
18280;SDS011;9266;51.132;17.062;2023-05-16T03:38:55;13.23;;;12.03;;
18280;SDS011;9266;51.132;17.062;2023-05-16T03:41:24;12.93;;;11.53;;
18280;SDS011;9266;51.132;17.062;2023-05-16T03:43:51;12.73;;;11.43;;
18280;SDS011;9266;51.132;17.062;2023-05-16T03:46:18;12.27;;;10.97;;
18280;SDS011;9266;51.132;17.062;2023-05-16T03:48:45;12.07;;;10.60;;
18280;SDS011;9266;51.132;17.062;2023-05-16T03:51:12;11.77;;;10.60;;
18280;SDS011;9266;51.132;17.062;2023-05-16T03:53:39;11.43;;;10.20;;
18280;SDS011;9266;51.132;17.062;2023-05-16T03:56:06;11.20;;;9.90;;
18280;SDS011;9266;51.132;17.062;2023-05-16T03:58:34;13.07;;;9.57;;
18280;SDS011;9266;51.132;17.062;2023-05-16T04:01:01;14.87;;;10.77;;
18280;SDS011;9266;51.132;17.062;2023-05-16T04:03:28;12.33;;;10.17;;
18280;SDS011;9266;51.132;17.062;2023-05-16T04:05:58;11.03;;;9.90;;
18280;SDS011;9266;51.132;17.062;2023-05-16T04:08:25;11.43;;;10.23;;
18280;SDS011;9266;51.132;17.062;2023-05-16T04:10:52;14.33;;;9.53;;
18280;SDS011;9266;51.132;17.062;2023-05-16T04:13:20;14.17;;;9.87;;
18280;SDS011;9266;51.132;17.062;2023-05-16T04:15:48;13.40;;;11.33;;
18280;SDS011;9266;51.132;17.062;2023-05-16T04:18:15;20.10;;;18.13;;
18280;SDS011;9266;51.132;17.062;2023-05-16T04:20:43;11.23;;;10.20;;
18280;SDS011;9266;51.132;17.062;2023-05-16T04:23:11;11.03;;;9.53;;
18280;SDS011;9266;51.132;17.062;2023-05-16T04:25:39;12.67;;;9.97;;
18280;SDS011;9266;51.132;17.062;2023-05-16T04:28:06;13.10;;;9.30;;
18280;SDS011;9266;51.132;17.062;2023-05-16T04:30:33;13.83;;;9.97;;
18280;SDS011;9266;51.132;17.062;2023-05-16T04:33:03;11.23;;;9.53;;
18280;SDS011;9266;51.132;17.062;2023-05-16T04:35:30;14.40;;;9.37;;
18280;SDS011;9266;51.132;17.062;2023-05-16T04:37:57;9.37;;;7.90;;
18280;SDS011;9266;51.132;17.062;2023-05-16T04:40:24;8.70;;;7.97;;
18280;SDS011;9266;51.132;17.062;2023-05-16T04:42:51;10.23;;;9.00;;
18280;SDS011;9266;51.132;17.062;2023-05-16T04:45:19;9.07;;;8.27;;
18280;SDS011;9266;51.132;17.062;2023-05-16T04:47:46;10.77;;;8.20;;
18280;SDS011;9266;51.132;17.062;2023-05-16T04:50:15;10.57;;;8.37;;
18280;SDS011;9266;51.132;17.062;2023-05-16T04:52:42;9.57;;;8.57;;
18280;SDS011;9266;51.132;17.062;2023-05-16T04:55:09;9.13;;;8.20;;
18280;SDS011;9266;51.132;17.062;2023-05-16T04:57:36;8.50;;;7.60;;
18280;SDS011;9266;51.132;17.062;2023-05-16T05:00:05;11.30;;;8.47;;
18280;SDS011;9266;51.132;17.062;2023-05-16T05:02:34;11.27;;;8.50;;
18280;SDS011;9266;51.132;17.062;2023-05-16T05:05:02;8.87;;;7.97;;
18280;SDS011;9266;51.132;17.062;2023-05-16T05:07:31;9.10;;;8.20;;
18280;SDS011;9266;51.132;17.062;2023-05-16T05:09:58;8.37;;;7.57;;
18280;SDS011;9266;51.132;17.062;2023-05-16T05:12:25;10.93;;;7.37;;
18280;SDS011;9266;51.132;17.062;2023-05-16T05:14:52;8.60;;;7.73;;
18280;SDS011;9266;51.132;17.062;2023-05-16T05:17:19;9.87;;;8.47;;
18280;SDS011;9266;51.132;17.062;2023-05-16T05:19:48;9.27;;;8.20;;
18280;SDS011;9266;51.132;17.062;2023-05-16T05:22:15;9.10;;;7.10;;
18280;SDS011;9266;51.132;17.062;2023-05-16T05:24:43;8.93;;;7.60;;
18280;SDS011;9266;51.132;17.062;2023-05-16T05:27:11;14.97;;;8.60;;
18280;SDS011;9266;51.132;17.062;2023-05-16T05:29:38;10.60;;;7.77;;
18280;SDS011;9266;51.132;17.062;2023-05-16T05:32:05;8.73;;;7.83;;
18280;SDS011;9266;51.132;17.062;2023-05-16T05:34:33;8.37;;;7.43;;
18280;SDS011;9266;51.132;17.062;2023-05-16T05:37:01;8.57;;;7.57;;
18280;SDS011;9266;51.132;17.062;2023-05-16T05:39:28;8.73;;;7.17;;
18280;SDS011;9266;51.132;17.062;2023-05-16T05:41:57;8.20;;;7.20;;
18280;SDS011;9266;51.132;17.062;2023-05-16T05:44:24;8.27;;;7.25;;
18280;SDS011;9266;51.132;17.062;2023-05-16T05:46:51;9.87;;;7.60;;
18280;SDS011;9266;51.132;17.062;2023-05-16T05:49:18;8.43;;;7.63;;
18280;SDS011;9266;51.132;17.062;2023-05-16T05:51:45;8.07;;;7.17;;
18280;SDS011;9266;51.132;17.062;2023-05-16T05:54:12;9.47;;;7.40;;
18280;SDS011;9266;51.132;17.062;2023-05-16T05:56:39;9.05;;;7.30;;
18280;SDS011;9266;51.132;17.062;2023-05-16T05:59:07;10.47;;;8.50;;
18280;SDS011;9266;51.132;17.062;2023-05-16T06:01:34;11.30;;;8.17;;
18280;SDS011;9266;51.132;17.062;2023-05-16T06:04:01;9.33;;;8.13;;
18280;SDS011;9266;51.132;17.062;2023-05-16T06:06:28;9.60;;;8.57;;
18280;SDS011;9266;51.132;17.062;2023-05-16T06:08:55;11.20;;;8.43;;
18280;SDS011;9266;51.132;17.062;2023-05-16T06:11:23;8.60;;;7.80;;
18280;SDS011;9266;51.132;17.062;2023-05-16T06:13:50;10.20;;;8.20;;
18280;SDS011;9266;51.132;17.062;2023-05-16T06:16:22;9.30;;;8.20;;
18280;SDS011;9266;51.132;17.062;2023-05-16T06:18:50;8.50;;;7.70;;
18280;SDS011;9266;51.132;17.062;2023-05-16T06:21:17;9.10;;;8.20;;
18280;SDS011;9266;51.132;17.062;2023-05-16T06:23:44;11.37;;;8.53;;
18280;SDS011;9266;51.132;17.062;2023-05-16T06:26:11;12.80;;;8.57;;
18280;SDS011;9266;51.132;17.062;2023-05-16T06:28:38;9.03;;;8.07;;
18280;SDS011;9266;51.132;17.062;2023-05-16T06:31:05;11.67;;;8.40;;
18280;SDS011;9266;51.132;17.062;2023-05-16T06:33:33;9.67;;;8.67;;
18280;SDS011;9266;51.132;17.062;2023-05-16T06:36:00;9.07;;;8.27;;
18280;SDS011;9266;51.132;17.062;2023-05-16T06:38:27;9.37;;;8.50;;
18280;SDS011;9266;51.132;17.062;2023-05-16T06:40:54;10.07;;;8.70;;
18280;SDS011;9266;51.132;17.062;2023-05-16T06:43:21;9.40;;;8.50;;
18280;SDS011;9266;51.132;17.062;2023-05-16T06:45:48;10.17;;;9.23;;
18280;SDS011;9266;51.132;17.062;2023-05-16T06:48:16;9.87;;;8.47;;
18280;SDS011;9266;51.132;17.062;2023-05-16T06:50:47;12.33;;;9.97;;
18280;SDS011;9266;51.132;17.062;2023-05-16T06:53:15;9.97;;;9.00;;
18280;SDS011;9266;51.132;17.062;2023-05-16T06:55:43;10.40;;;9.37;;
18280;SDS011;9266;51.132;17.062;2023-05-16T06:58:10;10.60;;;9.47;;
18280;SDS011;9266;51.132;17.062;2023-05-16T07:00:37;10.67;;;9.57;;
18280;SDS011;9266;51.132;17.062;2023-05-16T07:03:04;10.97;;;9.87;;
18280;SDS011;9266;51.132;17.062;2023-05-16T07:05:31;12.17;;;9.63;;
18280;SDS011;9266;51.132;17.062;2023-05-16T07:08:00;11.73;;;9.53;;
18280;SDS011;9266;51.132;17.062;2023-05-16T07:10:27;11.87;;;9.47;;
18280;SDS011;9266;51.132;17.062;2023-05-16T07:12:54;10.33;;;9.37;;
18280;SDS011;9266;51.132;17.062;2023-05-16T07:15:22;10.27;;;9.17;;
18280;SDS011;9266;51.132;17.062;2023-05-16T07:17:49;12.37;;;8.80;;
18280;SDS011;9266;51.132;17.062;2023-05-16T07:20:16;9.97;;;8.97;;
18280;SDS011;9266;51.132;17.062;2023-05-16T07:22:43;10.50;;;9.30;;
18280;SDS011;9266;51.132;17.062;2023-05-16T07:25:12;11.20;;;9.70;;
18280;SDS011;9266;51.132;17.062;2023-05-16T07:27:40;11.07;;;9.80;;
18280;SDS011;9266;51.132;17.062;2023-05-16T07:30:09;11.43;;;10.33;;
18280;SDS011;9266;51.132;17.062;2023-05-16T07:32:38;11.10;;;10.00;;
18280;SDS011;9266;51.132;17.062;2023-05-16T07:35:07;10.63;;;9.53;;
18280;SDS011;9266;51.132;17.062;2023-05-16T07:37:35;10.90;;;9.90;;
18280;SDS011;9266;51.132;17.062;2023-05-16T07:40:02;11.60;;;10.33;;
18280;SDS011;9266;51.132;17.062;2023-05-16T07:42:31;11.57;;;10.37;;
18280;SDS011;9266;51.132;17.062;2023-05-16T07:44:58;12.23;;;10.13;;
18280;SDS011;9266;51.132;17.062;2023-05-16T07:47:26;11.53;;;10.43;;
18280;SDS011;9266;51.132;17.062;2023-05-16T07:49:53;11.40;;;10.47;;
18280;SDS011;9266;51.132;17.062;2023-05-16T07:52:20;11.17;;;10.07;;
18280;SDS011;9266;51.132;17.062;2023-05-16T07:54:47;11.37;;;10.17;;
18280;SDS011;9266;51.132;17.062;2023-05-16T07:57:14;11.20;;;10.20;;
18280;SDS011;9266;51.132;17.062;2023-05-16T07:59:43;11.23;;;10.13;;
18280;SDS011;9266;51.132;17.062;2023-05-16T08:02:11;10.37;;;9.47;;
18280;SDS011;9266;51.132;17.062;2023-05-16T08:04:38;10.83;;;9.70;;
18280;SDS011;9266;51.132;17.062;2023-05-16T08:07:05;10.17;;;9.20;;
18280;SDS011;9266;51.132;17.062;2023-05-16T08:09:32;11.80;;;10.20;;
18280;SDS011;9266;51.132;17.062;2023-05-16T08:11:59;11.07;;;10.07;;
18280;SDS011;9266;51.132;17.062;2023-05-16T08:14:28;12.73;;;10.80;;
18280;SDS011;9266;51.132;17.062;2023-05-16T08:16:58;13.10;;;11.23;;
18280;SDS011;9266;51.132;17.062;2023-05-16T08:19:25;12.17;;;10.90;;
18280;SDS011;9266;51.132;17.062;2023-05-16T08:21:53;14.53;;;10.53;;
18280;SDS011;9266;51.132;17.062;2023-05-16T08:24:20;12.00;;;10.53;;
18280;SDS011;9266;51.132;17.062;2023-05-16T08:26:47;11.47;;;10.23;;
18280;SDS011;9266;51.132;17.062;2023-05-16T08:29:14;11.13;;;10.10;;
18280;SDS011;9266;51.132;17.062;2023-05-16T08:31:41;11.63;;;9.93;;
18280;SDS011;9266;51.132;17.062;2023-05-16T08:34:10;12.50;;;10.53;;
18280;SDS011;9266;51.132;17.062;2023-05-16T08:36:37;12.50;;;9.50;;
18280;SDS011;9266;51.132;17.062;2023-05-16T08:39:04;10.73;;;9.63;;
18280;SDS011;9266;51.132;17.062;2023-05-16T08:41:31;9.77;;;8.87;;
18280;SDS011;9266;51.132;17.062;2023-05-16T08:43:58;10.50;;;9.23;;
18280;SDS011;9266;51.132;17.062;2023-05-16T08:46:25;10.87;;;9.80;;
18280;SDS011;9266;51.132;17.062;2023-05-16T08:48:57;11.77;;;10.57;;
18280;SDS011;9266;51.132;17.062;2023-05-16T08:51:27;10.93;;;9.63;;
18280;SDS011;9266;51.132;17.062;2023-05-16T08:54:01;11.40;;;10.27;;
18280;SDS011;9266;51.132;17.062;2023-05-16T08:56:29;11.03;;;9.13;;
18280;SDS011;9266;51.132;17.062;2023-05-16T08:58:59;11.37;;;10.00;;
18280;SDS011;9266;51.132;17.062;2023-05-16T09:01:27;10.07;;;9.07;;
18280;SDS011;9266;51.132;17.062;2023-05-16T09:03:56;11.23;;;10.13;;
18280;SDS011;9266;51.132;17.062;2023-05-16T09:06:24;10.37;;;9.37;;
18280;SDS011;9266;51.132;17.062;2023-05-16T09:08:53;10.87;;;9.77;;
18280;SDS011;9266;51.132;17.062;2023-05-16T09:11:20;10.77;;;9.60;;
18280;SDS011;9266;51.132;17.062;2023-05-16T09:13:48;9.17;;;8.37;;
18280;SDS011;9266;51.132;17.062;2023-05-16T09:16:15;9.20;;;8.37;;
18280;SDS011;9266;51.132;17.062;2023-05-16T09:18:45;9.50;;;8.63;;
18280;SDS011;9266;51.132;17.062;2023-05-16T09:21:18;9.30;;;8.40;;
18280;SDS011;9266;51.132;17.062;2023-05-16T09:23:47;9.30;;;8.40;;
18280;SDS011;9266;51.132;17.062;2023-05-16T09:26:16;10.03;;;9.13;;
18280;SDS011;9266;51.132;17.062;2023-05-16T09:28:44;10.13;;;9.23;;
18280;SDS011;9266;51.132;17.062;2023-05-16T09:31:21;10.53;;;9.63;;
18280;SDS011;9266;51.132;17.062;2023-05-16T09:33:50;10.83;;;9.53;;
18280;SDS011;9266;51.132;17.062;2023-05-16T09:36:17;9.87;;;8.87;;
18280;SDS011;9266;51.132;17.062;2023-05-16T09:38:44;9.00;;;8.07;;
18280;SDS011;9266;51.132;17.062;2023-05-16T09:41:11;9.67;;;8.13;;
18280;SDS011;9266;51.132;17.062;2023-05-16T09:43:40;8.73;;;7.83;;
18280;SDS011;9266;51.132;17.062;2023-05-16T09:46:08;10.80;;;8.43;;
18280;SDS011;9266;51.132;17.062;2023-05-16T09:48:39;10.70;;;8.10;;
18280;SDS011;9266;51.132;17.062;2023-05-16T09:51:07;9.57;;;8.67;;
18280;SDS011;9266;51.132;17.062;2023-05-16T09:53:36;10.03;;;8.27;;
18280;SDS011;9266;51.132;17.062;2023-05-16T09:56:05;10.27;;;8.30;;
18280;SDS011;9266;51.132;17.062;2023-05-16T09:58:33;11.73;;;7.97;;
18280;SDS011;9266;51.132;17.062;2023-05-16T10:01:03;9.13;;;8.20;;
18280;SDS011;9266;51.132;17.062;2023-05-16T10:03:32;9.13;;;8.20;;
18280;SDS011;9266;51.132;17.062;2023-05-16T10:06:00;9.07;;;8.17;;
18280;SDS011;9266;51.132;17.062;2023-05-16T10:08:28;10.57;;;8.23;;
18280;SDS011;9266;51.132;17.062;2023-05-16T10:11:00;11.37;;;8.60;;
18280;SDS011;9266;51.132;17.062;2023-05-16T10:13:29;8.10;;;7.27;;
18280;SDS011;9266;51.132;17.062;2023-05-16T10:15:57;9.47;;;8.30;;
18280;SDS011;9266;51.132;17.062;2023-05-16T10:18:29;10.77;;;9.43;;
18280;SDS011;9266;51.132;17.062;2023-05-16T10:20:57;8.93;;;8.07;;
18280;SDS011;9266;51.132;17.062;2023-05-16T10:23:30;8.40;;;7.70;;
18280;SDS011;9266;51.132;17.062;2023-05-16T10:25:59;9.30;;;8.33;;
18280;SDS011;9266;51.132;17.062;2023-05-16T10:28:28;8.67;;;7.87;;
18280;SDS011;9266;51.132;17.062;2023-05-16T10:30:56;9.10;;;8.00;;
18280;SDS011;9266;51.132;17.062;2023-05-16T10:33:23;9.73;;;7.50;;
18280;SDS011;9266;51.132;17.062;2023-05-16T10:35:52;9.40;;;7.73;;
18280;SDS011;9266;51.132;17.062;2023-05-16T10:38:19;8.73;;;7.83;;
18280;SDS011;9266;51.132;17.062;2023-05-16T10:40:48;10.47;;;9.37;;
18280;SDS011;9266;51.132;17.062;2023-05-16T10:43:23;10.80;;;9.90;;
18280;SDS011;9266;51.132;17.062;2023-05-16T10:45:54;12.43;;;9.20;;
18280;SDS011;9266;51.132;17.062;2023-05-16T10:48:28;12.33;;;9.90;;
18280;SDS011;9266;51.132;17.062;2023-05-16T10:50:58;12.90;;;11.50;;
18280;SDS011;9266;51.132;17.062;2023-05-16T10:53:30;12.27;;;11.13;;
18280;SDS011;9266;51.132;17.062;2023-05-16T10:56:07;12.83;;;11.53;;
18280;SDS011;9266;51.132;17.062;2023-05-16T10:58:39;12.97;;;11.27;;
18280;SDS011;9266;51.132;17.062;2023-05-16T11:01:16;12.07;;;10.90;;
18280;SDS011;9266;51.132;17.062;2023-05-16T11:06:33;12.73;;;11.50;;
18280;SDS011;9266;51.132;17.062;2023-05-16T11:09:16;12.50;;;11.40;;
18280;SDS011;9266;51.132;17.062;2023-05-16T11:11:55;13.93;;;12.57;;
18280;SDS011;9266;51.132;17.062;2023-05-16T11:14:25;13.93;;;12.63;;
18280;SDS011;9266;51.132;17.062;2023-05-16T11:16:59;16.50;;;13.23;;
18280;SDS011;9266;51.132;17.062;2023-05-16T11:19:29;14.47;;;13.07;;
18280;SDS011;9266;51.132;17.062;2023-05-16T11:22:05;15.40;;;12.33;;
18280;SDS011;9266;51.132;17.062;2023-05-16T11:24:47;14.10;;;12.50;;
18280;SDS011;9266;51.132;17.062;2023-05-16T11:27:19;16.83;;;14.10;;
18280;SDS011;9266;51.132;17.062;2023-05-16T11:29:49;15.67;;;14.13;;
18280;SDS011;9266;51.132;17.062;2023-05-16T11:32:20;15.53;;;13.37;;
18280;SDS011;9266;51.132;17.062;2023-05-16T11:34:49;16.07;;;13.87;;
18280;SDS011;9266;51.132;17.062;2023-05-16T11:37:18;16.20;;;14.50;;
18280;SDS011;9266;51.132;17.062;2023-05-16T11:39:46;17.83;;;15.93;;
18280;SDS011;9266;51.132;17.062;2023-05-16T11:42:14;18.13;;;14.40;;
18280;SDS011;9266;51.132;17.062;2023-05-16T11:44:42;17.13;;;15.33;;
18280;SDS011;9266;51.132;17.062;2023-05-16T11:47:09;17.00;;;15.27;;
18280;SDS011;9266;51.132;17.062;2023-05-16T11:49:36;18.63;;;16.83;;
18280;SDS011;9266;51.132;17.062;2023-05-16T11:52:03;17.50;;;15.80;;
18280;SDS011;9266;51.132;17.062;2023-05-16T11:54:32;19.20;;;15.07;;
18280;SDS011;9266;51.132;17.062;2023-05-16T11:57:00;17.40;;;15.53;;
18280;SDS011;9266;51.132;17.062;2023-05-16T11:59:27;15.67;;;14.00;;
18280;SDS011;9266;51.132;17.062;2023-05-16T12:01:55;15.57;;;14.07;;
18280;SDS011;9266;51.132;17.062;2023-05-16T12:04:22;15.33;;;13.83;;
18280;SDS011;9266;51.132;17.062;2023-05-16T12:06:58;15.90;;;14.30;;
18280;SDS011;9266;51.132;17.062;2023-05-16T12:09:26;17.93;;;15.77;;
18280;SDS011;9266;51.132;17.062;2023-05-16T12:11:56;16.00;;;14.33;;
18280;SDS011;9266;51.132;17.062;2023-05-16T12:14:23;16.37;;;14.70;;
18280;SDS011;9266;51.132;17.062;2023-05-16T12:16:51;16.90;;;15.23;;
18280;SDS011;9266;51.132;17.062;2023-05-16T12:19:19;17.17;;;15.40;;
18280;SDS011;9266;51.132;17.062;2023-05-16T12:21:47;18.33;;;14.97;;
18280;SDS011;9266;51.132;17.062;2023-05-16T12:24:18;17.73;;;15.20;;
18280;SDS011;9266;51.132;17.062;2023-05-16T12:26:47;16.70;;;14.90;;
18280;SDS011;9266;51.132;17.062;2023-05-16T12:29:15;17.70;;;15.67;;
18280;SDS011;9266;51.132;17.062;2023-05-16T12:31:42;17.50;;;15.60;;
18280;SDS011;9266;51.132;17.062;2023-05-16T12:34:16;19.83;;;17.50;;
18280;SDS011;9266;51.132;17.062;2023-05-16T12:36:46;20.90;;;17.27;;
18280;SDS011;9266;51.132;17.062;2023-05-16T12:39:16;20.00;;;16.73;;
18280;SDS011;9266;51.132;17.062;2023-05-16T12:41:44;20.60;;;17.97;;
18280;SDS011;9266;51.132;17.062;2023-05-16T12:44:11;19.57;;;17.23;;
18280;SDS011;9266;51.132;17.062;2023-05-16T12:46:42;19.50;;;17.47;;
18280;SDS011;9266;51.132;17.062;2023-05-16T12:49:10;19.57;;;17.40;;
18280;SDS011;9266;51.132;17.062;2023-05-16T12:51:38;20.27;;;18.17;;
18280;SDS011;9266;51.132;17.062;2023-05-16T12:54:06;21.03;;;17.53;;
18280;SDS011;9266;51.132;17.062;2023-05-16T12:56:35;19.57;;;16.00;;
18280;SDS011;9266;51.132;17.062;2023-05-16T12:59:02;19.00;;;17.00;;
18280;SDS011;9266;51.132;17.062;2023-05-16T13:01:30;18.80;;;15.67;;
18280;SDS011;9266;51.132;17.062;2023-05-16T13:03:58;18.33;;;15.53;;
18280;SDS011;9266;51.132;17.062;2023-05-16T13:06:25;18.60;;;16.50;;
18280;SDS011;9266;51.132;17.062;2023-05-16T13:08:53;18.67;;;16.50;;
18280;SDS011;9266;51.132;17.062;2023-05-16T13:11:20;18.33;;;16.30;;
18280;SDS011;9266;51.132;17.062;2023-05-16T13:13:47;18.07;;;16.17;;
18280;SDS011;9266;51.132;17.062;2023-05-16T13:16:14;19.37;;;17.33;;
18280;SDS011;9266;51.132;17.062;2023-05-16T13:18:41;20.17;;;16.70;;
18280;SDS011;9266;51.132;17.062;2023-05-16T13:21:09;22.87;;;18.50;;
18280;SDS011;9266;51.132;17.062;2023-05-16T13:23:36;20.63;;;17.90;;
18280;SDS011;9266;51.132;17.062;2023-05-16T13:26:05;21.93;;;18.13;;
18280;SDS011;9266;51.132;17.062;2023-05-16T13:28:32;20.87;;;18.73;;
18280;SDS011;9266;51.132;17.062;2023-05-16T13:30:59;19.50;;;17.43;;
18280;SDS011;9266;51.132;17.062;2023-05-16T13:33:26;23.00;;;18.73;;
18280;SDS011;9266;51.132;17.062;2023-05-16T13:35:53;23.23;;;18.67;;
18280;SDS011;9266;51.132;17.062;2023-05-16T13:38:22;20.90;;;18.33;;
18280;SDS011;9266;51.132;17.062;2023-05-16T13:40:49;19.17;;;17.20;;
18280;SDS011;9266;51.132;17.062;2023-05-16T13:43:16;21.73;;;19.00;;
18280;SDS011;9266;51.132;17.062;2023-05-16T13:45:43;22.53;;;18.90;;
18280;SDS011;9266;51.132;17.062;2023-05-16T13:48:10;24.77;;;20.67;;
18280;SDS011;9266;51.132;17.062;2023-05-16T13:50:38;29.13;;;22.13;;
18280;SDS011;9266;51.132;17.062;2023-05-16T13:53:06;26.70;;;21.93;;
18280;SDS011;9266;51.132;17.062;2023-05-16T13:55:35;25.93;;;20.87;;
18280;SDS011;9266;51.132;17.062;2023-05-16T13:58:02;30.03;;;23.43;;
18280;SDS011;9266;51.132;17.062;2023-05-16T14:00:29;35.43;;;27.23;;
18280;SDS011;9266;51.132;17.062;2023-05-16T14:02:56;34.40;;;27.30;;
18280;SDS011;9266;51.132;17.062;2023-05-16T14:05:23;32.27;;;24.27;;
18280;SDS011;9266;51.132;17.062;2023-05-16T14:07:51;32.27;;;24.70;;
18280;SDS011;9266;51.132;17.062;2023-05-16T14:10:18;31.93;;;24.03;;
18280;SDS011;9266;51.132;17.062;2023-05-16T14:12:47;32.37;;;24.03;;
18280;SDS011;9266;51.132;17.062;2023-05-16T14:15:14;32.57;;;24.63;;
18280;SDS011;9266;51.132;17.062;2023-05-16T14:17:41;33.83;;;24.93;;
18280;SDS011;9266;51.132;17.062;2023-05-16T14:20:08;32.03;;;23.83;;
18280;SDS011;9266;51.132;17.062;2023-05-16T14:22:36;30.10;;;23.53;;
18280;SDS011;9266;51.132;17.062;2023-05-16T14:25:04;31.93;;;24.70;;
18280;SDS011;9266;51.132;17.062;2023-05-16T14:27:32;33.63;;;25.47;;
18280;SDS011;9266;51.132;17.062;2023-05-16T14:30:01;33.13;;;24.83;;
18280;SDS011;9266;51.132;17.062;2023-05-16T14:32:28;33.23;;;25.67;;
18280;SDS011;9266;51.132;17.062;2023-05-16T14:34:55;33.00;;;24.63;;
18280;SDS011;9266;51.132;17.062;2023-05-16T14:37:22;35.50;;;25.30;;
18280;SDS011;9266;51.132;17.062;2023-05-16T14:39:49;36.27;;;25.43;;
18280;SDS011;9266;51.132;17.062;2023-05-16T14:42:17;34.30;;;24.07;;